Time;durP1;ratioP1;P1;durP2;ratioP2;P2;SDS_P1;SDS_P2;PMS_P1;PMS_P2;Temp;Humidity;BMP_temperature;BMP_pressure;BME280_temperature;BME280_humidity;BME280_pressure;Samples;Min_cycle;Max_cycle;Signal;HPM_P1;HPM_P2
2022/08/25 00:02:07;;;;;;;0.90;0.90;;;23.40;99.90;;;;;;5061912;28;20647;-66
2022/08/25 00:04:35;;;;;;;0.60;0.60;;;23.40;99.90;;;;;;5066867;28;20257;-67
2022/08/25 00:07:02;;;;;;;0.77;0.77;;;23.40;99.90;;;;;;5068791;28;20294;-66
2022/08/25 00:09:30;;;;;;;0.73;0.73;;;23.40;99.90;;;;;;5061669;28;20567;-65
2022/08/25 00:11:57;;;;;;;1.40;0.80;;;23.40;99.90;;;;;;5063955;28;20203;-66
2022/08/25 00:14:26;;;;;;;0.80;0.80;;;23.40;99.90;;;;;;5066801;28;20692;-66
2022/08/25 00:16:55;;;;;;;0.82;0.82;;;23.40;99.90;;;;;;5064257;28;20744;-65
2022/08/25 00:19:27;;;;;;;0.80;0.80;;;23.40;99.90;;;;;;5075113;28;20266;-66
2022/08/25 00:21:54;;;;;;;0.90;0.90;;;23.40;99.90;;;;;;5064305;28;20806;-66
2022/08/25 00:24:22;;;;;;;0.75;0.75;;;23.40;99.90;;;;;;5054905;28;20248;-64
2022/08/25 00:26:51;;;;;;;0.75;0.75;;;23.40;99.90;;;;;;5065189;28;20284;-66
2022/08/25 00:29:19;;;;;;;0.82;0.82;;;23.30;99.90;;;;;;5065523;28;20258;-66
2022/08/25 00:31:46;;;;;;;0.70;0.70;;;23.30;99.90;;;;;;5053685;28;20287;-66
2022/08/25 00:34:18;;;;;;;0.70;0.70;;;23.30;99.90;;;;;;5065057;28;20566;-65
2022/08/25 00:36:47;;;;;;;0.60;0.60;;;23.30;99.90;;;;;;5061586;28;20204;-66
2022/08/25 00:39:14;;;;;;;0.95;0.95;;;23.20;99.90;;;;;;5056953;28;20304;-66
2022/08/25 00:41:43;;;;;;;0.80;0.80;;;23.20;99.90;;;;;;5065230;28;20267;-65
2022/08/25 00:44:12;;;;;;;0.73;0.73;;;23.30;99.90;;;;;;5061990;28;20318;-66
2022/08/25 00:46:42;;;;;;;0.80;0.80;;;23.30;99.90;;;;;;5063792;28;20207;-65
2022/08/25 00:49:14;;;;;;;0.65;0.65;;;23.40;99.90;;;;;;5060348;28;20231;-67
2022/08/25 00:51:46;;;;;;;0.70;0.70;;;23.40;99.90;;;;;;5055450;28;20235;-66
2022/08/25 00:54:22;;;;;;;0.60;0.60;;;23.30;99.90;;;;;;5062368;28;20409;-67
2022/08/25 00:56:50;;;;;;;0.60;0.60;;;23.30;99.90;;;;;;5064483;28;20199;-67
2022/08/25 00:59:20;;;;;;;0.77;0.77;;;23.20;99.90;;;;;;5059265;28;20224;-67
2022/08/25 01:01:47;;;;;;;0.85;0.80;;;23.30;99.90;;;;;;5062309;28;20199;-67
2022/08/25 01:04:14;;;;;;;0.90;0.90;;;23.20;99.90;;;;;;5063992;28;20279;-67
2022/08/25 01:06:44;;;;;;;0.80;0.80;;;23.20;99.90;;;;;;5064247;28;20231;-67
2022/08/25 01:09:12;;;;;;;0.80;0.80;;;23.20;99.90;;;;;;5058878;28;20216;-67
2022/08/25 01:11:40;;;;;;;0.80;0.80;;;23.20;99.90;;;;;;5060649;28;20504;-66
2022/08/25 01:14:07;;;;;;;0.80;0.80;;;23.20;99.90;;;;;;5056969;28;20200;-66
2022/08/25 01:16:35;;;;;;;0.70;0.70;;;23.10;99.90;;;;;;5067009;28;20207;-68
2022/08/25 01:19:02;;;;;;;0.70;0.70;;;23.10;99.90;;;;;;5065800;28;20658;-67
2022/08/25 01:21:37;;;;;;;0.60;0.60;;;23.10;99.90;;;;;;5052808;28;20201;-68
2022/08/25 01:24:04;;;;;;;0.85;0.85;;;23.00;99.90;;;;;;5059813;28;20286;-67
2022/08/25 01:26:34;;;;;;;0.70;0.70;;;22.90;99.90;;;;;;5054892;28;20291;-67
2022/08/25 01:29:24;;;;;;;0.77;0.77;;;22.80;99.90;;;;;;5062478;28;20227;-67
2022/08/25 01:31:56;;;;;;;0.70;0.70;;;22.80;99.90;;;;;;5048506;28;20204;-68
2022/08/25 01:34:23;;;;;;;0.73;0.73;;;22.60;99.90;;;;;;5063253;28;20269;-68
2022/08/25 01:36:52;;;;;;;0.57;0.57;;;22.50;99.90;;;;;;5057898;28;20283;-67
2022/08/25 01:39:19;;;;;;;0.80;0.80;;;22.50;99.90;;;;;;5055277;28;20251;-69
2022/08/25 01:41:58;;;;;;;1.10;0.77;;;22.30;99.90;;;;;;5058613;28;20203;-68
2022/08/25 01:44:25;;;;;;;0.70;0.70;;;22.20;99.90;;;;;;5046075;28;20315;-68
2022/08/25 01:46:53;;;;;;;0.73;0.73;;;22.10;99.90;;;;;;5051633;28;20218;-67
2022/08/25 01:49:20;;;;;;;0.75;0.75;;;22.00;99.90;;;;;;5045499;28;20247;-67
2022/08/25 01:51:53;;;;;;;0.73;0.73;;;22.00;99.90;;;;;;5053987;28;20200;-68
2022/08/25 01:54:21;;;;;;;0.80;0.80;;;21.90;99.90;;;;;;5043245;28;20205;-67
2022/08/25 01:56:48;;;;;;;0.60;0.60;;;21.90;99.90;;;;;;5056058;28;20286;-66
2022/08/25 01:59:16;;;;;;;0.50;0.50;;;21.90;99.90;;;;;;5042636;28;20256;-67
2022/08/25 02:01:43;;;;;;;0.70;0.70;;;21.90;99.90;;;;;;5051966;28;20204;-66
2022/08/25 02:04:11;;;;;;;0.75;0.75;;;21.90;99.90;;;;;;5067106;28;20228;-67
2022/08/25 02:06:39;;;;;;;0.73;0.73;;;21.90;99.90;;;;;;5051576;28;20212;-67
2022/08/25 02:09:09;;;;;;;0.60;0.60;;;21.80;99.90;;;;;;5059334;28;20219;-68
2022/08/25 02:11:39;;;;;;;0.70;0.70;;;21.80;99.90;;;;;;5053980;28;20211;-69
2022/08/25 02:14:07;;;;;;;0.70;0.70;;;21.80;99.90;;;;;;5052896;28;20580;-68
2022/08/25 02:16:37;;;;;;;0.70;0.70;;;21.80;99.90;;;;;;5043908;28;20205;-67
2022/08/25 02:19:05;;;;;;;0.80;0.80;;;21.70;99.90;;;;;;5057794;28;20315;-66
2022/08/25 02:21:32;;;;;;;0.80;0.80;;;21.70;99.90;;;;;;5042631;28;20263;-68
2022/08/25 02:24:00;;;;;;;0.70;0.70;;;21.70;99.90;;;;;;5062580;28;20211;-67
2022/08/25 02:26:27;;;;;;;0.60;0.60;;;21.60;99.90;;;;;;5055713;28;20204;-68
2022/08/25 02:28:55;;;;;;;0.60;0.60;;;21.60;99.90;;;;;;5053697;28;20263;-68
2022/08/25 02:31:24;;;;;;;0.73;0.73;;;21.60;99.90;;;;;;5056918;28;20201;-68
2022/08/25 02:33:52;;;;;;;0.70;0.70;;;21.60;99.90;;;;;;5053713;28;20662;-68
2022/08/25 02:36:20;;;;;;;0.60;0.60;;;21.60;99.90;;;;;;5042733;28;20618;-68
2022/08/25 02:38:47;;;;;;;0.73;0.73;;;21.60;99.90;;;;;;5049471;28;20228;-66
2022/08/25 02:41:16;;;;;;;0.90;0.90;;;21.60;99.90;;;;;;5055364;28;20196;-68
2022/08/25 02:43:44;;;;;;;0.70;0.70;;;21.60;99.90;;;;;;5059353;28;20222;-66
2022/08/25 02:46:13;;;;;;;0.70;0.70;;;21.60;99.90;;;;;;5053617;28;20265;-68
2022/08/25 02:48:40;;;;;;;0.80;0.80;;;21.50;99.90;;;;;;5053138;28;20260;-68
2022/08/25 02:51:08;;;;;;;0.90;0.90;;;21.60;99.90;;;;;;5052717;28;20218;-67
2022/08/25 02:53:38;;;;;;;0.68;0.68;;;21.60;99.90;;;;;;5058418;28;20199;-69
2022/08/25 02:56:06;;;;;;;0.75;0.75;;;21.60;99.90;;;;;;5053097;28;20208;-68
2022/08/25 02:58:33;;;;;;;0.80;0.80;;;21.60;99.90;;;;;;5056951;28;20222;-67
2022/08/25 03:01:00;;;;;;;0.60;0.60;;;21.60;99.90;;;;;;5052477;28;20214;-68
2022/08/25 03:03:28;;;;;;;0.75;0.75;;;21.60;99.90;;;;;;5054383;28;20234;-68
2022/08/25 03:05:56;;;;;;;0.70;0.70;;;21.60;99.90;;;;;;5055593;28;20570;-68
2022/08/25 03:08:23;;;;;;;0.80;0.80;;;21.70;99.90;;;;;;5052877;28;20266;-67
2022/08/25 03:10:49;;;;;;;0.60;0.60;;;21.70;99.90;;;;;;5052573;28;20553;-68
2022/08/25 03:13:17;;;;;;;0.98;0.90;;;21.60;99.90;;;;;;5052736;28;20563;-69
2022/08/25 03:15:44;;;;;;;0.75;0.75;;;21.70;99.90;;;;;;5048107;28;20263;-68
2022/08/25 03:18:12;;;;;;;1.80;0.95;;;21.70;99.90;;;;;;5052597;28;20227;-67
2022/08/25 03:20:40;;;;;;;0.85;0.85;;;21.70;99.90;;;;;;5053111;28;20204;-67
2022/08/25 03:23:07;;;;;;;0.60;0.60;;;21.70;99.90;;;;;;5052437;28;20304;-66
2022/08/25 03:28:19;;;;;;;0.60;0.60;;;21.60;99.90;;;;;;5052750;28;20668;-69
2022/08/25 03:30:46;;;;;;;0.70;0.70;;;21.50;99.90;;;;;;5052781;28;20208;-66
2022/08/25 03:33:13;;;;;;;0.80;0.80;;;21.40;99.90;;;;;;5052017;28;20218;-67
2022/08/25 03:35:41;;;;;;;0.70;0.70;;;21.40;99.90;;;;;;5059998;28;20235;-66
2022/08/25 03:38:08;;;;;;;0.65;0.65;;;21.30;99.90;;;;;;5045799;28;20284;-67
2022/08/25 03:40:35;;;;;;;0.70;0.70;;;21.20;99.90;;;;;;5052205;28;20556;-67
2022/08/25 03:43:02;;;;;;;1.00;1.00;;;21.20;99.90;;;;;;5053490;28;20266;-67
2022/08/25 03:45:29;;;;;;;0.88;0.88;;;21.10;99.90;;;;;;5051537;28;20231;-68
2022/08/25 03:47:56;;;;;;;0.80;0.80;;;21.00;99.90;;;;;;5051615;28;20208;-68
2022/08/25 03:50:24;;;;;;;0.75;0.75;;;21.00;99.90;;;;;;5064437;28;20299;-67
2022/08/25 03:52:53;;;;;;;0.73;0.73;;;21.00;99.90;;;;;;5067655;28;20266;-66
2022/08/25 03:55:22;;;;;;;0.90;0.90;;;21.00;99.90;;;;;;5063584;28;20460;-67
2022/08/25 03:57:49;;;;;;;0.77;0.77;;;21.00;99.90;;;;;;5058903;28;20316;-68
2022/08/25 04:00:16;;;;;;;0.70;0.70;;;20.90;99.90;;;;;;5052254;28;20326;-67
2022/08/25 04:02:43;;;;;;;0.80;0.80;;;20.90;99.90;;;;;;5058378;28;20208;-66
2022/08/25 04:05:11;;;;;;;0.70;0.70;;;20.90;99.90;;;;;;5052178;28;20250;-67
2022/08/25 04:07:38;;;;;;;0.80;0.80;;;20.90;99.90;;;;;;5053135;28;20206;-69
2022/08/25 04:10:08;;;;;;;0.80;0.80;;;20.90;99.90;;;;;;5052170;28;20315;-67
2022/08/25 04:12:36;;;;;;;0.80;0.80;;;20.80;99.90;;;;;;5051630;28;20204;-68
2022/08/25 04:15:04;;;;;;;0.63;0.63;;;20.70;99.90;;;;;;5043168;28;20196;-67
2022/08/25 04:17:31;;;;;;;0.70;0.70;;;20.70;99.90;;;;;;5043348;28;20222;-67
2022/08/25 04:19:58;;;;;;;0.80;0.80;;;20.70;99.90;;;;;;5050974;28;20719;-68
2022/08/25 04:22:25;;;;;;;0.73;0.73;;;20.60;99.90;;;;;;5051334;28;20199;-66
2022/08/25 04:24:52;;;;;;;0.90;0.90;;;20.60;99.90;;;;;;5050888;28;20225;-66
2022/08/25 04:27:20;;;;;;;0.77;0.77;;;20.50;99.90;;;;;;5056346;28;20225;-67
2022/08/25 04:29:47;;;;;;;3.13;0.90;;;20.50;99.90;;;;;;5052880;28;20230;-67
2022/08/25 04:32:14;;;;;;;0.70;0.70;;;20.50;99.90;;;;;;5051526;28;20207;-69
2022/08/25 04:34:42;;;;;;;0.88;0.88;;;20.50;99.90;;;;;;5051274;28;20295;-68
2022/08/25 04:37:09;;;;;;;0.90;0.90;;;20.40;99.90;;;;;;5051482;28;20204;-69
2022/08/25 04:39:36;;;;;;;0.80;0.80;;;20.40;99.90;;;;;;5045707;28;20224;-68
2022/08/25 04:42:03;;;;;;;0.80;0.80;;;20.40;99.90;;;;;;5043315;28;20200;-68
2022/08/25 04:44:32;;;;;;;0.80;0.80;;;20.40;99.90;;;;;;5051148;28;20239;-68
2022/08/25 04:47:01;;;;;;;0.70;0.70;;;20.40;99.90;;;;;;5044003;28;20208;-67
2022/08/25 04:49:28;;;;;;;0.65;0.65;;;20.40;99.90;;;;;;5047425;28;20228;-68
2022/08/25 04:51:56;;;;;;;0.65;0.65;;;20.40;99.90;;;;;;5043021;28;20749;-68
2022/08/25 04:54:23;;;;;;;0.60;0.60;;;20.40;99.90;;;;;;5051359;28;20204;-69
2022/08/25 04:56:52;;;;;;;0.80;0.80;;;20.30;99.90;;;;;;5051556;28;20226;-67
2022/08/25 04:59:19;;;;;;;0.70;0.70;;;20.30;99.90;;;;;;5045084;28;20215;-66
2022/08/25 05:01:47;;;;;;;0.90;0.90;;;20.30;99.90;;;;;;5054302;28;20664;-68
2022/08/25 05:04:16;;;;;;;0.98;0.98;;;20.30;99.90;;;;;;5041157;28;21217;-68
2022/08/25 05:06:43;;;;;;;0.90;0.90;;;20.30;99.90;;;;;;5048643;28;20295;-67
2022/08/25 05:09:10;;;;;;;0.90;0.90;;;20.30;99.90;;;;;;5045188;28;20255;-66
2022/08/25 05:11:37;;;;;;;1.63;0.90;;;20.30;99.90;;;;;;5054722;28;20212;-67
2022/08/25 05:14:10;;;;;;;0.80;0.80;;;20.30;99.90;;;;;;5061441;28;20741;-66
2022/08/25 05:16:37;;;;;;;0.80;0.80;;;20.20;99.90;;;;;;5055408;28;20593;-67
2022/08/25 05:19:06;;;;;;;1.10;1.10;;;20.20;99.90;;;;;;5054846;28;20227;-67
2022/08/25 05:21:33;;;;;;;0.90;0.90;;;20.30;99.90;;;;;;5054507;28;20291;-67
2022/08/25 05:24:01;;;;;;;1.00;1.00;;;20.30;99.90;;;;;;5049104;28;20197;-66
2022/08/25 05:26:30;;;;;;;1.08;1.08;;;20.20;99.90;;;;;;5055509;28;20294;-68
2022/08/25 05:28:59;;;;;;;0.90;0.90;;;20.20;99.90;;;;;;5041074;28;20225;-68
2022/08/25 05:31:26;;;;;;;0.80;0.80;;;20.20;99.90;;;;;;5047927;28;20220;-68
2022/08/25 05:33:54;;;;;;;0.82;0.82;;;20.20;99.90;;;;;;5054325;28;20218;-66
2022/08/25 05:36:24;;;;;;;0.90;0.90;;;20.20;99.90;;;;;;5051105;28;20230;-66
2022/08/25 05:38:51;;;;;;;0.90;0.90;;;20.20;99.90;;;;;;5046341;28;20251;-66
2022/08/25 05:41:21;;;;;;;1.00;1.00;;;20.20;99.90;;;;;;5051856;28;20234;-67
2022/08/25 05:43:49;;;;;;;0.80;0.80;;;20.30;99.90;;;;;;5054176;28;20200;-66
2022/08/25 05:46:17;;;;;;;0.90;0.85;;;20.40;99.90;;;;;;5058526;28;20203;-67
2022/08/25 05:48:44;;;;;;;0.90;0.90;;;20.50;99.90;;;;;;5058341;28;20236;-68
2022/08/25 05:51:13;;;;;;;0.77;0.77;;;20.50;99.90;;;;;;5053133;28;20216;-67
2022/08/25 05:53:44;;;;;;;0.80;0.80;;;20.60;99.90;;;;;;5047138;28;20590;-67
2022/08/25 05:56:12;;;;;;;0.90;0.90;;;20.70;99.90;;;;;;5051174;28;20208;-67
2022/08/25 05:58:40;;;;;;;1.08;1.08;;;20.90;99.90;;;;;;5050410;28;20223;-67
2022/08/25 06:03:53;;;;;;;0.82;0.82;;;21.00;99.90;;;;;;5051922;28;20214;-67
2022/08/25 06:06:21;;;;;;;0.98;0.98;;;21.20;99.90;;;;;;5049614;28;20232;-68
2022/08/25 06:08:49;;;;;;;0.73;0.73;;;21.20;99.90;;;;;;5054494;28;20701;-67
2022/08/25 06:11:16;;;;;;;0.70;0.70;;;21.30;99.90;;;;;;5053538;28;20208;-69
2022/08/25 06:13:44;;;;;;;0.90;0.90;;;21.40;99.90;;;;;;5054552;28;20310;-67
2022/08/25 06:16:11;;;;;;;0.80;0.80;;;21.50;99.90;;;;;;5053544;28;20204;-68
2022/08/25 06:18:38;;;;;;;1.17;1.10;;;21.70;99.90;;;;;;5052931;28;20315;-67
2022/08/25 06:21:10;;;;;;;0.80;0.80;;;21.80;99.90;;;;;;5052199;28;20783;-68
2022/08/25 06:23:37;;;;;;;0.80;0.80;;;21.90;99.90;;;;;;5051306;28;20201;-67
2022/08/25 06:26:06;;;;;;;0.80;0.80;;;22.00;99.90;;;;;;5054893;28;20215;-66
2022/08/25 06:28:33;;;;;;;0.90;0.90;;;22.10;99.90;;;;;;5055466;28;20221;-69
2022/08/25 06:31:01;;;;;;;0.70;0.70;;;22.30;99.90;;;;;;5045331;28;20203;-68
2022/08/25 06:33:28;;;;;;;0.80;0.80;;;22.40;99.90;;;;;;5046988;28;20667;-69
2022/08/25 06:35:57;;;;;;;0.77;0.77;;;22.50;99.90;;;;;;5051233;28;20220;-68
2022/08/25 06:38:24;;;;;;;1.20;1.10;;;22.60;99.90;;;;;;5045898;28;20655;-68
2022/08/25 06:40:52;;;;;;;1.05;1.05;;;22.70;99.90;;;;;;5057275;28;20210;-67
2022/08/25 06:43:21;;;;;;;0.95;0.95;;;22.90;99.90;;;;;;5050085;28;20271;-68
2022/08/25 06:45:48;;;;;;;1.00;1.00;;;23.00;99.90;;;;;;5053656;28;20711;-67
2022/08/25 06:48:15;;;;;;;0.90;0.90;;;23.10;99.90;;;;;;5049990;28;20326;-67
2022/08/25 06:50:43;;;;;;;0.85;0.85;;;23.10;99.90;;;;;;5049741;28;20642;-67
2022/08/25 06:53:10;;;;;;;0.73;0.73;;;23.20;99.90;;;;;;5047824;28;20200;-68
2022/08/25 06:55:37;;;;;;;0.90;0.90;;;23.40;99.90;;;;;;5053066;28;20544;-67
2022/08/25 06:58:05;;;;;;;0.85;0.85;;;23.50;99.90;;;;;;5052151;28;20200;-67
2022/08/25 07:00:33;;;;;;;1.65;1.00;;;23.70;99.90;;;;;;5058071;28;20210;-69
2022/08/25 07:03:00;;;;;;;0.77;0.77;;;23.90;99.90;;;;;;5052107;28;20235;-68
2022/08/25 07:05:27;;;;;;;0.70;0.70;;;24.00;99.90;;;;;;5050049;28;20638;-68
2022/08/25 07:07:54;;;;;;;1.02;0.93;;;24.10;99.90;;;;;;5052634;28;20616;-68
2022/08/25 07:10:21;;;;;;;0.80;0.80;;;24.30;99.90;;;;;;5053065;28;20211;-68
2022/08/25 07:12:49;;;;;;;0.80;0.80;;;24.40;99.90;;;;;;5053115;28;20208;-67
2022/08/25 07:15:16;;;;;;;0.80;0.80;;;24.50;99.90;;;;;;5054096;28;20566;-69
2022/08/25 07:17:44;;;;;;;0.88;0.88;;;24.50;99.90;;;;;;5052776;28;20629;-68
2022/08/25 07:20:12;;;;;;;1.17;1.08;;;24.70;99.90;;;;;;5052553;28;20736;-69
2022/08/25 07:22:39;;;;;;;0.98;0.98;;;24.70;99.90;;;;;;5061526;28;20232;-68
2022/08/25 07:25:07;;;;;;;1.08;1.08;;;24.60;99.90;;;;;;5058082;28;20661;-69
2022/08/25 07:27:34;;;;;;;0.88;0.88;;;24.60;99.90;;;;;;5060066;28;20208;-68
2022/08/25 07:30:01;;;;;;;1.02;0.95;;;24.60;99.90;;;;;;5058237;28;20248;-68
2022/08/25 07:32:28;;;;;;;0.90;0.90;;;24.70;99.90;;;;;;5056313;28;20218;-68
2022/08/25 07:37:41;;;;;;;0.88;0.88;;;25.00;99.90;;;;;;5063368;28;20281;-68
2022/08/25 07:40:10;;;;;;;0.82;0.82;;;25.10;99.90;;;;;;5061509;28;20219;-67
2022/08/25 07:42:37;;;;;;;0.90;0.90;;;25.20;99.90;;;;;;5063202;28;20239;-68
2022/08/25 07:45:05;;;;;;;1.10;1.00;;;25.40;99.90;;;;;;5062240;28;20261;-68
2022/08/25 07:47:32;;;;;;;0.85;0.85;;;25.50;99.90;;;;;;5059481;28;20196;-68
2022/08/25 07:50:01;;;;;;;1.00;1.00;;;25.70;99.90;;;;;;5061162;28;20229;-67
2022/08/25 07:52:28;;;;;;;0.80;0.80;;;25.80;99.90;;;;;;5056183;28;20290;-70
2022/08/25 07:54:55;;;;;;;0.77;0.77;;;25.90;99.90;;;;;;5062829;28;20620;-67
2022/08/25 07:57:23;;;;;;;1.10;0.90;;;26.00;99.90;;;;;;5066018;28;20649;-67
2022/08/25 07:59:50;;;;;;;1.13;1.13;;;26.20;99.90;;;;;;5062237;28;20253;-69
2022/08/25 08:02:18;;;;;;;1.10;1.10;;;26.30;99.90;;;;;;5068308;28;20265;-67
2022/08/25 08:04:45;;;;;;;1.00;1.00;;;26.30;99.90;;;;;;5062660;28;20203;-69
2022/08/25 08:07:16;;;;;;;1.00;1.00;;;26.40;99.90;;;;;;5063477;28;20204;-68
2022/08/25 08:09:43;;;;;;;1.00;0.80;;;26.60;99.90;;;;;;5066782;28;20687;-67
2022/08/25 08:12:10;;;;;;;0.85;0.85;;;26.70;99.90;;;;;;5061550;28;20204;-67
2022/08/25 08:14:37;;;;;;;0.90;0.90;;;26.90;99.90;;;;;;5068688;28;20206;-69
2022/08/25 08:17:06;;;;;;;0.80;0.80;;;26.90;99.90;;;;;;5054739;28;20208;-67
2022/08/25 08:19:34;;;;;;;0.80;0.80;;;26.80;99.90;;;;;;5048439;28;20546;-68
2022/08/25 08:22:02;;;;;;;0.90;0.90;;;26.70;99.90;;;;;;5052422;28;20204;-69
2022/08/25 08:24:31;;;;;;;0.82;0.82;;;26.90;99.90;;;;;;5043290;28;20200;-68
2022/08/25 08:26:58;;;;;;;0.80;0.80;;;27.10;99.90;;;;;;5051586;28;20227;-68
2022/08/25 08:29:25;;;;;;;0.88;0.88;;;27.20;99.90;;;;;;5054958;28;20667;-67
2022/08/25 08:31:52;;;;;;;0.90;0.85;;;27.10;99.90;;;;;;5053733;28;20227;-67
2022/08/25 08:34:19;;;;;;;0.60;0.60;;;27.00;99.90;;;;;;5047283;28;20290;-67
2022/08/25 08:36:46;;;;;;;0.70;0.70;;;27.10;99.90;;;;;;5060810;28;20196;-67
2022/08/25 08:39:13;;;;;;;0.80;0.80;;;27.10;99.90;;;;;;5065434;28;20737;-67
2022/08/25 08:44:50;;;;;;;1.00;1.00;;;27.30;99.90;;;;;;5065001;28;20225;-67
2022/08/25 08:47:28;;;;;;;0.80;0.80;;;27.50;99.90;;;;;;5067541;28;20671;-68
2022/08/25 08:50:02;;;;;;;0.90;0.90;;;27.60;99.90;;;;;;5063709;28;20314;-68
2022/08/25 08:52:38;;;;;;;0.88;0.88;;;27.70;99.90;;;;;;5070292;28;20294;-66
2022/08/25 08:55:11;;;;;;;1.00;1.00;;;27.80;99.90;;;;;;5067763;28;20205;-66
2022/08/25 08:57:46;;;;;;;1.20;1.00;;;28.00;99.90;;;;;;5067352;28;20286;-68
2022/08/25 09:00:14;;;;;;;0.90;0.90;;;28.00;99.90;;;;;;5069032;28;20685;-67
2022/08/25 09:02:47;;;;;;;1.00;1.00;;;28.00;99.90;;;;;;5068616;28;20203;-67
2022/08/25 09:05:18;;;;;;;1.10;1.10;;;28.00;99.90;;;;;;5064781;28;20603;-67
2022/08/25 09:07:48;;;;;;;0.90;0.70;;;28.00;99.90;;;;;;5071329;28;20221;-67
2022/08/25 09:10:17;;;;;;;0.88;0.88;;;28.10;99.90;;;;;;5069337;28;20219;-67
2022/08/25 09:12:53;;;;;;;0.95;0.95;;;28.10;99.90;;;;;;5071150;28;20389;-69
2022/08/25 09:16:53;;;;;;;0.93;0.93;;;28.20;99.90;;;;;;5065963;28;20286;-67
2022/08/25 09:18:25;;;;;;;1.85;0.90;;;28.20;99.90;;;;;;5070014;28;20713;-67
2022/08/25 09:21:03;;;;;;;0.90;0.90;;;28.40;99.90;;;;;;5070907;28;20198;-66
2022/08/25 09:23:39;;;;;;;0.77;0.77;;;28.70;99.90;;;;;;5067555;28;20207;-67
2022/08/25 09:26:22;;;;;;;0.88;0.88;;;28.80;99.90;;;;;;5068159;28;20221;-67
2022/08/25 09:28:54;;;;;;;0.90;0.90;;;28.90;99.90;;;;;;5069418;28;20237;-67
2022/08/25 09:31:23;;;;;;;0.80;0.80;;;28.90;99.90;;;;;;5073677;28;20218;-67
2022/08/25 09:33:55;;;;;;;0.90;0.90;;;28.80;99.90;;;;;;5072825;28;20203;-68
2022/08/25 09:36:22;;;;;;;1.00;1.00;;;29.00;99.90;;;;;;5077594;28;20217;-66
2022/08/25 09:38:49;;;;;;;1.00;1.00;;;29.00;99.90;;;;;;5073747;28;20227;-68
2022/08/25 09:41:18;;;;;;;0.90;0.90;;;29.00;99.90;;;;;;5070443;28;20286;-66
2022/08/25 09:43:54;;;;;;;0.80;0.80;;;29.10;99.90;;;;;;5066020;28;20202;-67
2022/08/25 09:46:26;;;;;;;0.85;0.85;;;29.10;99.90;;;;;;5070062;28;20317;-67
2022/08/25 09:48:54;;;;;;;0.80;0.80;;;29.30;99.90;;;;;;5069630;28;20261;-66
2022/08/25 09:51:27;;;;;;;0.80;0.80;;;29.50;99.90;;;;;;5068143;28;20630;-68
2022/08/25 09:53:56;;;;;;;1.10;0.90;;;29.70;99.90;;;;;;5066747;28;20195;-66
2022/08/25 09:56:25;;;;;;;0.90;0.90;;;29.70;99.90;;;;;;5068113;28;20211;-68
2022/08/25 09:58:56;;;;;;;0.80;0.80;;;29.60;99.90;;;;;;5065086;28;20313;-67
2022/08/25 10:01:24;;;;;;;0.80;0.80;;;29.70;99.90;;;;;;5062323;28;20208;-66
2022/08/25 10:04:00;;;;;;;0.93;0.93;;;29.90;99.90;;;;;;5060851;28;20242;-66
2022/08/25 10:06:30;;;;;;;1.23;1.10;;;30.10;99.90;;;;;;5066619;28;20302;-68
2022/08/25 10:09:01;;;;;;;0.90;0.90;;;30.00;99.90;;;;;;5053157;28;20220;-66
2022/08/25 10:11:40;;;;;;;1.08;0.93;;;30.20;99.90;;;;;;5061167;28;20243;-67
2022/08/25 10:14:18;;;;;;;0.80;0.80;;;30.40;99.90;;;;;;5053450;28;20208;-67
2022/08/25 10:16:47;;;;;;;0.90;0.90;;;30.60;99.90;;;;;;5052578;28;20202;-67
2022/08/25 10:19:24;;;;;;;0.80;0.80;;;30.60;99.90;;;;;;5042092;28;20224;-67
2022/08/25 10:22:04;;;;;;;0.90;0.90;;;30.40;99.90;;;;;;5051329;28;20232;-66
2022/08/25 10:24:31;;;;;;;1.00;1.00;;;30.50;99.90;;;;;;5050922;28;20234;-66
2022/08/25 10:27:04;;;;;;;0.80;0.80;;;30.60;99.90;;;;;;5043236;28;20220;-67
2022/08/25 10:30:02;;;;;;;1.85;1.05;;;30.50;99.90;;;;;;5045867;28;20252;-67
2022/08/25 10:32:39;;;;;;;0.77;0.77;;;30.50;99.90;;;;;;5053175;28;20239;-69
2022/08/25 10:35:12;;;;;;;0.93;0.90;;;30.80;99.90;;;;;;5052884;28;20249;-68
2022/08/25 10:37:46;;;;;;;0.90;0.90;;;30.90;99.90;;;;;;5054085;28;20200;-67
2022/08/25 10:40:22;;;;;;;0.75;0.75;;;31.00;99.90;;;;;;5051010;28;20282;-67
2022/08/25 10:43:01;;;;;;;0.90;0.90;;;30.90;99.90;;;;;;5052687;28;20203;-68
2022/08/25 10:45:45;;;;;;;0.80;0.80;;;30.80;99.90;;;;;;5049413;28;20224;-66
2022/08/25 10:48:51;;;;;;;0.88;0.88;;;30.90;99.90;;;;;;5050850;28;20239;-66
2022/08/25 10:51:40;;;;;;;0.90;0.90;;;31.20;99.90;;;;;;5056684;28;20203;-68
2022/08/25 10:54:22;;;;;;;0.82;0.82;;;31.10;99.90;;;;;;5068661;28;20207;-68
2022/08/25 10:56:56;;;;;;;1.00;1.00;;;31.20;99.90;;;;;;5055273;28;20196;-68
2022/08/25 10:59:40;;;;;;;0.90;0.90;;;31.40;99.90;;;;;;5063640;28;20232;-66
2022/08/25 11:02:47;;;;;;;0.88;0.88;;;31.60;99.90;;;;;;5062390;28;20206;-66
2022/08/25 11:05:21;;;;;;;0.80;0.80;;;31.60;99.90;;;;;;5066148;28;20222;-67
2022/08/25 11:07:52;;;;;;;0.80;0.80;;;31.50;99.90;;;;;;5066874;28;20261;-67
2022/08/25 11:10:25;;;;;;;2.17;1.05;;;31.40;99.90;;;;;;5067576;28;20207;-67
2022/08/25 11:12:55;;;;;;;3.58;1.85;;;31.40;99.90;;;;;;5068010;28;20613;-68
2022/08/25 11:15:28;;;;;;;0.90;0.90;;;31.40;99.90;;;;;;5064241;28;20218;-67
2022/08/25 11:18:00;;;;;;;0.80;0.80;;;31.60;99.90;;;;;;5059381;28;20247;-67
2022/08/25 11:20:34;;;;;;;0.90;0.90;;;31.70;99.90;;;;;;5063679;28;20257;-67
2022/08/25 11:23:11;;;;;;;0.80;0.80;;;31.80;99.90;;;;;;5066022;28;20199;-67
2022/08/25 11:25:42;;;;;;;0.82;0.82;;;31.80;99.90;;;;;;5062809;28;20203;-66
2022/08/25 11:28:12;;;;;;;0.90;0.90;;;31.60;99.90;;;;;;5061363;28;20214;-66
2022/08/25 11:30:40;;;;;;;0.80;0.80;;;31.60;99.90;;;;;;5063344;28;20286;-68
2022/08/25 11:33:12;;;;;;;0.80;0.80;;;31.40;99.90;;;;;;5063755;28;20242;-68
2022/08/25 11:35:45;;;;;;;0.80;0.80;;;31.40;99.90;;;;;;5064051;28;20199;-66
2022/08/25 11:38:28;;;;;;;1.25;0.80;;;31.70;99.90;;;;;;5054391;28;20250;-67
2022/08/25 11:41:09;;;;;;;0.70;0.70;;;31.90;99.90;;;;;;5064947;28;20704;-66
2022/08/25 11:43:54;;;;;;;0.90;0.85;;;32.10;99.90;;;;;;5061121;28;20281;-66
2022/08/25 11:46:40;;;;;;;0.80;0.80;;;32.30;99.90;;;;;;5056345;28;20649;-68
2022/08/25 11:49:30;;;;;;;0.80;0.80;;;32.20;99.90;;;;;;5064526;28;20738;-66
2022/08/25 11:51:58;;;;;;;0.80;0.80;;;32.10;99.90;;;;;;5064226;28;20289;-68
2022/08/25 11:54:29;;;;;;;0.70;0.70;;;32.20;99.90;;;;;;5062411;28;20581;-67
2022/08/25 11:57:02;;;;;;;0.90;0.90;;;32.20;99.90;;;;;;5058462;28;20278;-66
2022/08/25 12:00:11;;;;;;;0.80;0.80;;;32.40;99.90;;;;;;5054535;28;20798;-67
2022/08/25 12:02:42;;;;;;;1.00;1.00;;;32.60;99.90;;;;;;5058709;28;20211;-67
2022/08/25 12:05:12;;;;;;;0.70;0.70;;;32.50;99.90;;;;;;5060741;28;20294;-66
2022/08/25 12:11:00;;;;;;;1.00;0.98;;;32.70;99.90;;;;;;5059342;28;20281;-68
2022/08/25 12:13:43;;;;;;;0.80;0.80;;;32.70;99.90;;;;;;5060584;28;20286;-68
2022/08/25 12:16:48;;;;;;;0.90;0.90;;;32.80;99.90;;;;;;5066483;28;20226;-68
2022/08/25 12:19:30;;;;;;;1.10;1.00;;;32.90;99.90;;;;;;5039232;28;20230;-67
2022/08/25 12:22:18;;;;;;;0.80;0.80;;;32.90;99.90;;;;;;5063865;28;20210;-68
2022/08/25 12:24:53;;;;;;;1.00;1.00;;;32.80;99.90;;;;;;5064719;28;20207;-68
2022/08/25 12:27:28;;;;;;;0.70;0.70;;;32.80;99.90;;;;;;5065395;28;20229;-67
2022/08/25 12:30:00;;;;;;;0.90;0.90;;;32.90;99.90;;;;;;5066886;28;20767;-68
2022/08/25 12:32:52;;;;;;;0.90;0.90;;;33.00;99.90;;;;;;5062304;28;20294;-68
2022/08/25 12:35:39;;;;;;;0.80;0.80;;;33.20;99.90;;;;;;5055393;28;20204;-66
2022/08/25 12:38:12;;;;;;;0.98;0.98;;;33.30;99.90;;;;;;5066612;28;20199;-68
2022/08/25 12:41:01;;;;;;;1.25;0.80;;;33.30;99.90;;;;;;5058414;28;20227;-66
2022/08/25 12:43:31;;;;;;;0.93;0.88;;;33.30;99.90;;;;;;5059271;28;20208;-69
2022/08/25 12:46:31;;;;;;;0.85;0.85;;;33.50;99.90;;;;;;5057824;28;20203;-66
2022/08/25 12:49:00;;;;;;;0.80;0.80;;;33.50;99.90;;;;;;5064295;28;20232;-67
2022/08/25 12:51:38;;;;;;;0.90;0.90;;;33.50;99.90;;;;;;5066685;28;20296;-67
2022/08/25 12:54:16;;;;;;;0.80;0.80;;;33.30;99.90;;;;;;5066196;28;20207;-68
2022/08/25 12:56:50;;;;;;;0.88;0.88;;;33.30;99.90;;;;;;5062964;28;20211;-68
2022/08/25 12:59:20;;;;;;;0.88;0.88;;;33.40;99.90;;;;;;5053502;28;20228;-68
2022/08/25 13:02:22;;;;;;;0.70;0.70;;;33.40;99.90;;;;;;5047665;28;20892;-68
2022/08/25 13:05:04;;;;;;;0.90;0.90;;;33.30;99.90;;;;;;5047204;28;20207;-68
2022/08/25 13:07:49;;;;;;;0.93;0.90;;;33.30;99.90;;;;;;5050380;28;20224;-67
2022/08/25 13:10:23;;;;;;;0.80;0.80;;;33.30;99.90;;;;;;5051593;28;20314;-66
2022/08/25 13:12:58;;;;;;;0.80;0.80;;;33.20;99.90;;;;;;5050071;28;20694;-68
2022/08/25 13:15:34;;;;;;;1.00;1.00;;;33.30;99.90;;;;;;5046969;28;20208;-67
2022/08/25 13:18:26;;;;;;;0.95;0.95;;;33.50;99.90;;;;;;5049652;28;20210;-68
2022/08/25 13:21:01;;;;;;;0.90;0.90;;;33.50;99.90;;;;;;5040698;28;20227;-67
2022/08/25 13:23:29;;;;;;;1.20;1.02;;;33.30;99.90;;;;;;5046539;28;20203;-67